Bei Facebook empfehlenBei Twitter postenGoogle plusPinterest

Das Wetter im Erzgebirge am 18.02.2017

Wetter und Klima am 18.02.2017 Holzhau im Erzgebirge (630m ü.NN)
Letzte gemessene Temperatur und Uhrzeit der Messung23:45:00 Uhr-0.30 °C
Temperatur (Maximum / Höchstwert) und Uhrzeit der Messung11:30:00 Uhr1.60 °C
Temperatur (Minimum / Tiefstwert) und Uhrzeit der Messung23:30:00-0.40 °C
Errechneter Absolutwert der Temperaturschwankungen zwischen Tmin und Tmax des Tages2.00 K
Errechnete Tagesmitteltemperatur0.64375 °C
Gesamt - Niederschlag des Tages (in flüssiger Form)2.07 Liter / m²
Luftdruck (Maximum / Höchstwert) und Zeitpunkt der Messung21:45:00 Uhr1020.20 hPa
Luftdruck (Minimum / Tiefstwert) und Zeitpunkt der Messung00:45:00 Uhr1017.70 hPa
Errechneter Absolutwert der Luftdruckschwankungen des Tages2.50 hPa
Höchste gemessene Windgeschwindigkeit und Uhrzeit der Messung03:30:00 Uhr11.88 km/h
Errechnete Windhäufigkeit in Relation zu den Messwerten des Tages35.41667 %
Niedrigste Windkühle (Windchill) und Zeitpunkt der Messung06:00:00 Uhr-2.40 °C
Taupunkt (Maximum / Höchstwert) und Uhrzeit der Messung11:15:00 Uhr0.80 °C
Taupunkt (Minimum / Tiefstwert) und Uhrzeit der Messung23:30:00-1.30 °C
Anzahl der automatisch eingelesenen Messwerte 96

Detaillierte Wetter- und Klima- Messwerte für den 18.02.2017 in Holzhau im Erzgebirge (630m ü.NN)
ZeitTemperaturLuftdruckRel. LuftfeuchteWindWindrichtungWindchillTaupunktNiederschlag l/m²
23:45:00-0.30 °C1019.90 hPa94.00 %-1.20 °C2.07
23:30:00-0.40 °C1019.90 hPa94.00 %-1.30 °C2.07
23:15:00-0.30 °C1019.90 hPa94.00 %-1.20 °C2.07
23:00:00-0.40 °C1019.80 hPa94.00 %-1.30 °C2.07
22:45:00-0.20 °C1020.10 hPa94.00 %-1.10 °C2.07
22:30:00-0.40 °C1020.10 hPa94.00 %-1.30 °C2.07
22:15:00-0.40 °C1020.10 hPa94.00 %-1.30 °C2.07
22:00:00-0.40 °C1020.00 hPa94.00 %-1.30 °C2.07
21:45:00-0.40 °C1020.20 hPa94.00 %-1.30 °C2.07
21:30:00-0.40 °C1020.00 hPa94.00 %-1.30 °C2.07
21:15:00-0.40 °C1020.00 hPa94.00 %-1.30 °C2.07
21:00:00-0.40 °C1020.10 hPa94.00 %-1.30 °C2.07
20:45:00-0.20 °C1020.10 hPa94.00 %-1.10 °C2.07
20:30:00-0.20 °C1020.10 hPa94.00 %-1.10 °C2.07
20:15:00-0.20 °C1019.90 hPa94.00 %-1.10 °C2.07
20:00:00-0.20 °C1020.00 hPa94.00 %-1.10 °C2.07
19:45:00-0.10 °C1020.00 hPa94.00 %-1.00 °C2.07
19:30:00-0.10 °C1020.10 hPa94.00 %-1.00 °C2.07
19:15:00-0.10 °C1020.10 hPa93.00 %-1.20 °C2.07
19:00:00-0.10 °C1020.00 hPa93.00 %-1.20 °C2.07
18:45:00-0.10 °C1019.90 hPa93.00 %-1.20 °C2.07
18:30:00-0.10 °C1019.90 hPa93.00 %-1.20 °C2.07
18:15:000.00 °C1019.80 hPa93.00 %-1.10 °C2.07
18:00:000.10 °C1019.70 hPa93.00 %-0.90 °C2.07
17:45:000.20 °C1019.80 hPa93.00 %-0.80 °C2.07
17:30:000.30 °C1019.70 hPa93.00 %-0.70 °C2.07
17:15:000.40 °C1019.70 hPa93.00 %1.08 km/hWSW0.40 °C-0.60 °C2.07
17:00:000.40 °C1019.70 hPa93.00 %-0.60 °C2.07
16:45:000.50 °C1019.60 hPa93.00 %-0.50 °C2.07
16:30:000.60 °C1019.60 hPa93.00 %5.76 km/hNNW-1.20 °C-0.40 °C2.07
16:15:000.90 °C1019.50 hPa93.00 %4.68 km/hNW0.90 °C-0.10 °C2.07
16:00:000.90 °C1019.40 hPa93.00 %-0.10 °C2.07
15:45:001.00 °C1019.40 hPa93.00 %3.24 km/hWNW1.00 °C0.00 °C2.07
15:30:001.20 °C1019.40 hPa93.00 %0.20 °C2.07
15:15:001.30 °C1019.40 hPa93.00 %0.30 °C2.07
15:00:001.10 °C1019.40 hPa93.00 %0.10 °C2.07
14:45:001.10 °C1019.40 hPa92.00 %4.68 km/hWNW1.10 °C-0.10 °C2.07
14:30:001.10 °C1019.70 hPa92.00 %2.88 km/hWSW1.10 °C-0.10 °C2.07
14:15:001.30 °C1019.70 hPa93.00 %0.30 °C2.07
14:00:001.20 °C1019.60 hPa93.00 %0.20 °C2.07
13:45:001.10 °C1019.80 hPa93.00 %0.10 °C2.07
13:30:001.10 °C1019.80 hPa93.00 %2.52 km/hNNW1.10 °C0.10 °C2.07
13:15:001.10 °C1019.80 hPa93.00 %0.10 °C2.07
13:00:001.20 °C1019.80 hPa93.00 %3.60 km/hW1.20 °C0.20 °C2.07
12:45:001.40 °C1019.90 hPa93.00 %1.80 km/hWNW1.40 °C0.40 °C2.07
12:30:001.30 °C1020.20 hPa94.00 %0.40 °C2.07
12:15:001.00 °C1020.20 hPa94.00 %0.10 °C2.07
12:00:001.10 °C1020.10 hPa94.00 %0.20 °C2.07
11:45:001.40 °C1020.10 hPa94.00 %6.12 km/hWNW-0.50 °C0.50 °C2.07
11:30:001.60 °C1020.10 hPa94.00 %1.44 km/hNW1.60 °C0.70 °C2.07
11:15:001.50 °C1019.90 hPa95.00 %0.80 °C1.55
11:00:001.30 °C1019.90 hPa95.00 %8.64 km/hWNW-1.40 °C0.60 °C1.55
10:45:001.30 °C1019.90 hPa95.00 %2.16 km/hW1.30 °C0.60 °C1.55
10:30:001.10 °C1019.70 hPa95.00 %5.40 km/hNW-0.50 °C0.40 °C1.55
10:15:001.00 °C1019.90 hPa95.00 %1.08 km/hWNW1.00 °C0.30 °C1.55
10:00:001.00 °C1019.70 hPa95.00 %0.30 °C1.55
09:45:000.90 °C1019.60 hPa95.00 %0.20 °C1.55
09:30:000.90 °C1019.60 hPa95.00 %2.88 km/hWNW0.90 °C0.20 °C1.55
09:15:000.80 °C1019.50 hPa95.00 %1.08 km/hWNW0.80 °C0.10 °C1.55
09:00:000.80 °C1019.30 hPa95.00 %0.10 °C1.55
08:45:000.80 °C1019.20 hPa95.00 %0.10 °C1.55
08:30:000.70 °C1018.90 hPa95.00 %0.00 °C1.55
08:15:000.60 °C1018.90 hPa95.00 %-0.10 °C1.55
08:00:000.50 °C1019.20 hPa95.00 %-0.20 °C1.55
07:45:000.50 °C1018.90 hPa95.00 %-0.20 °C1.55
07:30:000.50 °C1018.80 hPa95.00 %-0.20 °C1.55
07:15:000.40 °C1018.90 hPa95.00 %-0.30 °C1.55
07:00:000.40 °C1018.80 hPa95.00 %-0.30 °C1.55
06:45:000.50 °C1018.70 hPa95.00 %1.08 km/hWNW0.50 °C-0.20 °C1.55
06:30:000.60 °C1018.60 hPa95.00 %3.24 km/hW0.60 °C-0.10 °C1.55
06:15:000.60 °C1018.50 hPa95.00 %2.52 km/hW0.60 °C-0.10 °C1.55
06:00:000.50 °C1018.50 hPa95.00 %9.00 km/hW-2.40 °C-0.20 °C1.04
05:45:000.60 °C1018.50 hPa95.00 %4.32 km/hWNW0.60 °C-0.10 °C1.04
05:30:000.80 °C1018.40 hPa95.00 %0.10 °C1.04
05:15:000.90 °C1018.40 hPa95.00 %9.36 km/hW-2.10 °C0.20 °C1.04
05:00:000.90 °C1018.30 hPa95.00 %0.20 °C1.04
04:45:000.90 °C1018.30 hPa95.00 %0.20 °C1.04
04:30:000.90 °C1018.30 hPa95.00 %2.16 km/hWSW0.90 °C0.20 °C1.04
04:15:000.90 °C1018.10 hPa95.00 %0.20 °C1.04
04:00:001.00 °C1018.00 hPa95.00 %2.52 km/hW1.00 °C0.30 °C1.04
03:45:001.10 °C1017.90 hPa95.00 %2.88 km/hW1.10 °C0.40 °C1.04
03:30:001.10 °C1017.90 hPa95.00 %11.88 km/hNNW-2.40 °C0.40 °C1.04
03:15:001.10 °C1017.90 hPa95.00 %2.52 km/hWNW1.10 °C0.40 °C1.04
03:00:001.10 °C1018.00 hPa95.00 %0.40 °C1.04
02:45:001.10 °C1018.10 hPa95.00 %1.80 km/hNW1.10 °C0.40 °C1.04
02:30:000.90 °C1018.00 hPa95.00 %0.20 °C1.04
02:15:000.90 °C1017.90 hPa95.00 %1.08 km/hWNW0.90 °C0.20 °C1.04
02:00:000.90 °C1018.00 hPa95.00 %0.20 °C1.04
01:45:001.20 °C1017.80 hPa95.00 %0.50 °C0.52
01:30:001.20 °C1017.80 hPa95.00 %0.36 km/hWNW1.20 °C0.50 °C0.52
01:15:001.10 °C1017.80 hPa95.00 %6.12 km/hWNW-0.80 °C0.40 °C0.52
01:00:001.10 °C1017.80 hPa95.00 %2.52 km/hWNW1.10 °C0.40 °C0.52
00:45:001.20 °C1017.70 hPa95.00 %0.50 °C0.52
00:30:001.20 °C1017.80 hPa95.00 %0.50 °C0.52
00:15:001.20 °C1017.70 hPa94.00 %1.08 km/hW1.20 °C0.30 °C 
00:00:001.20 °C1017.80 hPa94.00 %0.30 °C 

Permanenter Link zu dieser Seite: Wetter im Erzgebirge am 18.02.2017
Performance-Info: Die Erstellung der Seite / Statistik(en) / Tabelle(n) erforderte 5 Datenbankserver-Abfrage(n) und dauerte 101 Millisekunden. (Dieser Messwert ist von der Gesamt-Auslastung des Servers abhängig.)
Erzgebirge - Wetter | Erzgebirge - Wetter (Mobilgeräte) | Komplette Klimadatenbank